VTBU/UTP METAR and TAF weather

Enter ICAO airport designator
Station Type Date Time Source
VTBU METAR 2018/12/10 12:30 UTC NOAA

VTBU 101230Z 35003KT 5000 BR FEW020CB BKN100 28/23 Q1011 NOSIG


Station Type Date Time Source
VTBU Decoded METAR 2018/12/10 12:30 UTC NOAA

Rayong, Thailand (VTBU) 12-38N 101-21E 5M
Dec 10, 2018 - 07:30 AM EST / 2018.12.10 1230 UTC
Wind: from the N (350 degrees) at 3 MPH (3 KT):0
Visibility: 3 mile(s):0
Sky conditions: mostly cloudy
Weather: mist; Cumulonimbus clouds observed
Temperature: 82 F (28 C)
Dew Point: 73 F (23 C)
Relative Humidity: 74%
Pressure (altimeter): 29.85 in. Hg (1011 hPa)
ob: VTBU 101230Z 35003KT 5000 BR FEW020CB BKN100 28/23 Q1011 NOSIG
cycle: 12

Station Type Date Time Source
VTBU TAF 2018/12/10 12:37 UTC NOAA

TAF VTBU 101100Z 1012/1112 36004KT 5000 BR FEW020 SCT100
TEMPO 1013/1017 VRB10G20KT 3000 TSRA FEW018CB SCT035 BKN100
BECMG 1017/1019 3000 BR


Example: see airport list